createdAt,value
2019-05-17T00:01:57.522Z,85.80
2019-05-17T00:07:02.311Z,86.30
2019-05-17T00:12:07.882Z,87.30
2019-05-17T00:17:14.108Z,87.80
2019-05-17T00:22:19.661Z,88.10
2019-05-17T00:27:26.477Z,88.60
2019-05-17T00:32:32.204Z,89.10
2019-05-17T00:37:37.846Z,89.80
2019-05-17T00:42:43.398Z,90.10
2019-05-17T00:47:48.926Z,90.30
2019-05-17T00:52:56.517Z,90.60
2019-05-17T00:58:01.743Z,90.60
2019-05-17T01:03:07.398Z,90.70
2019-05-17T01:08:13.051Z,91.00
2019-05-17T01:13:18.586Z,90.90
2019-05-17T01:18:24.161Z,91.10
2019-05-17T01:23:29.751Z,91.20
2019-05-17T01:28:36.348Z,91.00
2019-05-17T01:33:42.106Z,91.10
2019-05-17T01:38:47.677Z,91.50
2019-05-17T01:43:53.314Z,91.80
2019-05-17T01:48:59.003Z,92.00
2019-05-17T01:54:06.879Z,92.30
2019-05-17T01:59:12.450Z,92.50
2019-05-17T02:04:18.090Z,92.90
2019-05-17T02:09:34.800Z,93.00
2019-05-17T02:14:31.110Z,93.00
2019-05-17T02:19:37.155Z,93.10
2019-05-17T02:24:42.995Z,93.20
2019-05-17T02:29:48.533Z,93.40
2019-05-17T02:34:54.007Z,93.30
2019-05-17T02:40:04.792Z,93.50
2019-05-17T02:45:06.802Z,93.40
2019-05-17T02:50:13.126Z,93.40
2019-05-17T02:55:19.236Z,93.40
2019-05-17T03:00:24.999Z,93.30
2019-05-17T03:05:33.856Z,93.30
2019-05-17T03:10:37.850Z,93.80
2019-05-17T03:15:43.539Z,93.90
2019-05-17T03:20:52.274Z,93.80
2019-05-17T03:25:56.258Z,93.80
2019-05-17T03:31:08.024Z,94.00
2019-05-17T03:36:09.270Z,94.10
2019-05-17T03:41:23.515Z,94.30
2019-05-17T03:46:23.170Z,94.40
2019-05-17T03:51:29.039Z,94.40
2019-05-17T03:56:34.758Z,94.20
2019-05-17T04:01:43.323Z,94.30
2019-05-17T04:06:47.687Z,94.30
2019-05-17T04:11:56.478Z,94.50
2019-05-17T04:17:03.999Z,94.40
2019-05-17T04:22:09.574Z,94.60
2019-05-17T04:27:15.561Z,94.60
2019-05-17T04:32:23.284Z,94.60
2019-05-17T04:37:28.311Z,94.70
2019-05-17T04:42:33.773Z,94.70
2019-05-17T04:47:39.338Z,94.80
2019-05-17T04:52:44.989Z,95.00
2019-05-17T04:57:52.983Z,95.20
2019-05-17T05:02:57.865Z,95.30
2019-05-17T05:08:03.805Z,95.60
2019-05-17T05:13:09.359Z,95.60
2019-05-17T05:18:14.930Z,95.60
2019-05-17T05:23:23.934Z,95.70
2019-05-17T05:28:27.981Z,95.90
2019-05-17T05:33:33.611Z,96.10
2019-05-17T05:38:39.255Z,96.10
2019-05-17T05:43:44.894Z,96.20
2019-05-17T05:48:52.196Z,96.20
2019-05-17T05:53:57.620Z,96.40
2019-05-17T05:59:04.580Z,96.50
2019-05-17T06:04:11.787Z,96.40
2019-05-17T06:09:17.505Z,96.40
2019-05-17T06:14:23.178Z,96.50
2019-05-17T06:19:28.726Z,96.40
2019-05-17T06:24:34.306Z,96.40
2019-05-17T06:29:41.535Z,96.50
2019-05-17T06:34:47.230Z,96.40
2019-05-17T06:39:52.928Z,96.50
2019-05-17T06:45:01.937Z,96.60
2019-05-17T06:50:06.716Z,96.70
2019-05-17T06:55:13.012Z,96.70
2019-05-17T07:00:23.776Z,96.80
2019-05-17T07:05:30.323Z,97.20
2019-05-17T07:10:36.282Z,97.30
2019-05-17T07:15:47.212Z,97.80
2019-05-17T07:20:50.133Z,98.10
2019-05-17T07:25:56.018Z,98.40
2019-05-17T07:31:01.583Z,98.40
2019-05-17T07:36:07.080Z,98.20
2019-05-17T07:41:12.706Z,98.10
2019-05-17T07:46:20.492Z,98.20
2019-05-17T07:51:25.442Z,98.20
2019-05-17T07:56:31.029Z,98.10
2019-05-17T08:01:36.625Z,98.00
2019-05-17T08:06:42.187Z,98.10
2019-05-17T08:11:50.061Z,97.90
2019-05-17T08:16:55.267Z,98.00
2019-05-17T08:22:00.826Z,97.90
2019-05-17T08:27:06.552Z,97.90
2019-05-17T08:32:12.232Z,97.80
2019-05-17T08:37:20.308Z,97.80
2019-05-17T08:42:25.414Z,97.70
2019-05-17T08:47:31.082Z,97.80
2019-05-17T08:52:36.856Z,97.90
2019-05-17T08:57:42.516Z,97.80
2019-05-17T09:02:50.022Z,97.90
2019-05-17T09:07:55.436Z,97.80
2019-05-17T09:13:01.027Z,96.80
2019-05-17T09:18:06.728Z,95.90
2019-05-17T09:23:12.318Z,95.50
2019-05-17T09:28:20.311Z,95.30
2019-05-17T09:33:25.073Z,95.10
2019-05-17T09:38:30.575Z,94.90
2019-05-17T09:43:36.244Z,94.90
2019-05-17T09:48:41.827Z,94.80
2019-05-17T09:53:49.594Z,94.90
2019-05-17T09:58:54.713Z,94.80
2019-05-17T10:04:00.501Z,94.70
2019-05-17T10:09:09.446Z,94.50
2019-05-17T10:14:24.604Z,94.40
2019-05-17T10:19:23.566Z,94.30
2019-05-17T10:24:37.877Z,94.00
2019-05-17T10:29:36.146Z,94.30
2019-05-17T10:34:41.749Z,93.90
2019-05-17T10:39:47.250Z,94.00
2019-05-17T10:44:54.722Z,93.90
2019-05-17T10:50:00.193Z,94.50
2019-05-17T10:55:05.983Z,94.70
2019-05-17T11:00:12.502Z,94.50
2019-05-17T11:05:20.096Z,94.30
2019-05-17T11:10:25.440Z,94.20
2019-05-17T11:15:31.093Z,93.90
2019-05-17T11:20:36.808Z,93.90
2019-05-17T11:25:45.931Z,93.90
2019-05-17T11:30:49.790Z,93.80
2019-05-17T11:35:55.378Z,93.70
2019-05-17T11:41:11.004Z,93.70
2019-05-17T11:46:08.556Z,93.80
2019-05-17T11:51:14.074Z,93.60
2019-05-17T11:56:19.696Z,93.60
2019-05-17T12:01:25.244Z,93.50
2019-05-17T12:06:31.076Z,93.50
2019-05-17T12:11:36.774Z,93.30
2019-05-17T12:16:42.440Z,92.90
2019-05-17T12:21:48.032Z,93.10
2019-05-17T12:26:53.696Z,93.30
2019-05-17T12:31:59.288Z,93.20
2019-05-17T12:37:04.905Z,93.40
2019-05-17T12:42:10.520Z,93.60
2019-05-17T12:47:16.214Z,93.90
2019-05-17T12:52:21.896Z,94.10
2019-05-17T12:57:27.419Z,94.40
2019-05-17T13:02:33.030Z,95.00
2019-05-17T13:07:40.618Z,95.00
2019-05-17T13:12:45.895Z,95.00
2019-05-17T13:17:51.689Z,95.20
2019-05-17T13:22:57.403Z,95.30
2019-05-17T13:28:03.072Z,95.60
2019-05-17T13:33:08.746Z,95.70
2019-05-17T13:38:14.618Z,95.80
2019-05-17T13:43:20.313Z,95.80
2019-05-17T13:48:25.874Z,95.80
2019-05-17T13:53:31.527Z,95.80
2019-05-17T13:58:37.166Z,95.90
2019-05-17T14:03:42.832Z,95.90
2019-05-17T14:08:48.372Z,95.90
2019-05-17T14:13:53.957Z,95.90
2019-05-17T14:18:59.756Z,95.90
2019-05-17T14:24:05.621Z,95.90
2019-05-17T14:29:11.154Z,96.10
2019-05-17T14:34:16.708Z,95.60
2019-05-17T14:39:22.240Z,95.60
2019-05-17T14:44:28.036Z,95.60
2019-05-17T14:49:33.676Z,95.70
2019-05-17T14:54:39.597Z,95.60
2019-05-17T14:59:45.308Z,95.80
2019-05-17T15:04:51.021Z,96.00
2019-05-17T15:09:56.619Z,96.20
2019-05-17T15:15:02.227Z,96.50
2019-05-17T15:20:08.236Z,96.60
2019-05-17T15:25:14.406Z,96.70
2019-05-17T15:30:19.933Z,96.60
2019-05-17T15:35:25.567Z,96.40
2019-05-17T15:40:31.165Z,96.50
2019-05-17T15:45:36.878Z,96.50
2019-05-17T15:50:42.462Z,96.50
2019-05-17T15:55:48.158Z,96.60
2019-05-17T16:00:53.868Z,96.70
2019-05-17T16:05:59.488Z,97.00
2019-05-17T16:11:05.210Z,97.30
2019-05-17T16:16:10.871Z,97.40
2019-05-17T16:21:16.470Z,97.70
2019-05-17T16:26:22.100Z,98.20
2019-05-17T16:31:27.695Z,98.20
2019-05-17T16:36:33.442Z,98.40
2019-05-17T16:41:39.059Z,98.50
2019-05-17T16:46:44.605Z,98.70
2019-05-17T16:51:50.343Z,98.70
2019-05-17T16:56:55.900Z,98.80
2019-05-17T17:02:01.548Z,98.60
2019-05-17T17:07:07.161Z,98.70
2019-05-17T17:12:12.832Z,98.50
2019-05-17T17:17:18.386Z,98.50
2019-05-17T17:22:24.043Z,98.80
2019-05-17T17:27:29.769Z,99.00
2019-05-17T17:32:35.450Z,99.00
2019-05-17T17:37:41.211Z,99.10
2019-05-17T17:42:46.816Z,99.20
2019-05-17T17:47:52.415Z,99.20
2019-05-17T17:52:58.114Z,99.40
2019-05-17T17:58:03.808Z,99.40
2019-05-17T18:03:11.157Z,99.30
2019-05-17T18:08:16.600Z,99.30
2019-05-17T18:13:22.284Z,99.30
2019-05-17T18:18:27.998Z,99.30
2019-05-17T18:23:33.653Z,99.20
2019-05-17T18:28:39.332Z,99.10
2019-05-17T18:33:45.027Z,98.80
2019-05-17T18:38:54.366Z,98.60
2019-05-17T18:44:00.569Z,98.50
2019-05-17T18:49:07.008Z,99.10
2019-05-17T18:54:14.750Z,97.60
2019-05-17T18:59:21.348Z,95.30
2019-05-17T19:04:27.299Z,95.70
2019-05-17T19:09:33.342Z,96.60
2019-05-17T19:14:43.115Z,97.10
2019-05-17T19:19:46.474Z,97.30
2019-05-17T19:24:52.420Z,97.50
2019-05-17T19:29:57.940Z,97.60
2019-05-17T19:35:03.710Z,97.70
2019-05-17T19:40:09.816Z,98.10
2019-05-17T19:45:16.135Z,98.30
2019-05-17T19:50:21.838Z,98.40
2019-05-17T19:55:27.673Z,98.60
2019-05-17T20:00:33.430Z,98.60
2019-05-17T20:05:39.067Z,98.70
2019-05-17T20:10:44.818Z,98.90
2019-05-17T20:15:50.528Z,99.90
2019-05-17T20:20:56.119Z,99.90
2019-05-17T20:26:01.696Z,99.80
2019-05-17T20:31:07.569Z,99.70
2019-05-17T20:36:13.337Z,99.80
2019-05-17T20:41:19.515Z,99.90
2019-05-17T20:46:25.585Z,99.90
2019-05-17T20:51:31.337Z,99.90
2019-05-17T20:56:37.264Z,99.90
2019-05-17T21:01:43.094Z,99.90
2019-05-17T21:06:49.284Z,99.90
2019-05-17T21:11:55.772Z,99.90
2019-05-17T21:17:02.827Z,99.90
2019-05-17T21:22:08.602Z,99.90
2019-05-17T21:27:14.383Z,99.90
2019-05-17T21:32:19.989Z,99.90
2019-05-17T21:37:26.092Z,99.80
2019-05-17T21:42:31.722Z,99.50
2019-05-17T21:47:37.324Z,99.40
2019-05-17T21:52:43.356Z,99.40
2019-05-17T21:57:49.056Z,99.30
2019-05-17T22:02:55.166Z,99.10
2019-05-17T22:08:00.771Z,99.00
2019-05-17T22:13:06.728Z,98.90
2019-05-17T22:18:12.324Z,98.80
2019-05-17T22:23:17.904Z,98.80
2019-05-17T22:28:23.515Z,98.70
2019-05-17T22:33:29.536Z,98.60
2019-05-17T22:38:35.316Z,98.70
2019-05-17T22:43:41.179Z,98.60
2019-05-17T22:48:47.013Z,98.50
2019-05-17T22:53:52.594Z,98.50
2019-05-17T22:58:58.109Z,98.50
2019-05-17T23:04:03.711Z,98.50
2019-05-17T23:09:09.459Z,98.70
2019-05-17T23:14:15.056Z,98.90
2019-05-17T23:19:20.739Z,99.10
2019-05-17T23:24:26.743Z,99.30
2019-05-17T23:29:32.320Z,99.40
2019-05-17T23:34:37.870Z,99.40
2019-05-17T23:39:43.492Z,99.40
2019-05-17T23:44:49.055Z,99.50
2019-05-17T23:49:54.631Z,99.50
2019-05-17T23:55:00.376Z,99.50
